Main page
METAR-TAF:

METAR-TAF

Airports :

Kassel, Germany

Kassel Airport

latitude: 51-24N, longitude: 009-23E, elevation: 277 m

Current weather observation

The report was made 10 minutes ago, at 13:20 UTC
Wind 14 kt from the West/Northwest
Temperature 18°C
Humidity 56%
Pressure 1014 hPa
Visibility 10 km or more
Few clouds at a height of 3500 ft

METAR: EDVK 231320Z 29014KT 9999 FEW035 18/09 Q1014

Time: 15:30 (13:30 UTC)

Forecast

The report was made 2 hours and 30 minutes ago, at 11:00 UTC
Forecast valid from 23 at 12 UTC to 23 at 21 UTC
Wind 12 kt from the West
Visibility 10 km or more
Scattered clouds at a height of 3000 ft
Becoming
from 23 at 18 UTC to 23 at 21 UTC
Wind 5 kt from the West

TAF: EDVK 231100Z 2312/2321 27012KT 9999 SCT030 BECMG 2318/2321 27005KT

Weather observations and forecasts of more than 4000 airports (METAR and TAF reports).

The available stations are represented by yellow and red dots on the map.

Hover mouse over dot to see the name of the station.

Then click to see weather observations and forecasts.

To change the map : click on the green buttons with a black cross to zoom in, on the green button with a dash to zoom out, or on the green arrows for adjacent maps.


METAR-TAF: